sensor_id;sensor_type;location;lat;lon;timestamp;P1;durP1;ratioP1;P2;durP2;ratioP2
74926;SDS011;63488;48.092;-1.640;2023-07-13T00:02:25;4.03;;;1.30;;
74926;SDS011;63488;48.092;-1.640;2023-07-13T00:04:52;4.30;;;1.17;;
74926;SDS011;63488;48.092;-1.640;2023-07-13T00:07:17;5.60;;;1.55;;
74926;SDS011;63488;48.092;-1.640;2023-07-13T00:09:45;6.35;;;1.95;;
74926;SDS011;63488;48.092;-1.640;2023-07-13T00:12:24;4.40;;;1.40;;
74926;SDS011;63488;48.092;-1.640;2023-07-13T00:14:50;8.00;;;1.37;;
74926;SDS011;63488;48.092;-1.640;2023-07-13T00:17:15;5.60;;;1.77;;
74926;SDS011;63488;48.092;-1.640;2023-07-13T00:19:41;3.65;;;1.50;;
74926;SDS011;63488;48.092;-1.640;2023-07-13T00:22:06;4.82;;;1.38;;
74926;SDS011;63488;48.092;-1.640;2023-07-13T00:24:31;2.20;;;1.05;;
74926;SDS011;63488;48.092;-1.640;2023-07-13T00:26:57;4.80;;;1.20;;
74926;SDS011;63488;48.092;-1.640;2023-07-13T00:29:22;4.50;;;1.20;;
74926;SDS011;63488;48.092;-1.640;2023-07-13T00:31:47;5.32;;;1.08;;
74926;SDS011;63488;48.092;-1.640;2023-07-13T00:34:13;3.45;;;1.02;;
74926;SDS011;63488;48.092;-1.640;2023-07-13T00:36:38;4.72;;;1.13;;
74926;SDS011;63488;48.092;-1.640;2023-07-13T00:39:04;5.22;;;1.27;;
74926;SDS011;63488;48.092;-1.640;2023-07-13T00:41:30;5.60;;;1.10;;
74926;SDS011;63488;48.092;-1.640;2023-07-13T00:43:56;3.65;;;0.95;;
74926;SDS011;63488;48.092;-1.640;2023-07-13T00:46:28;4.70;;;1.23;;
74926;SDS011;63488;48.092;-1.640;2023-07-13T00:48:55;3.25;;;1.00;;
74926;SDS011;63488;48.092;-1.640;2023-07-13T00:51:24;3.65;;;1.20;;
74926;SDS011;63488;48.092;-1.640;2023-07-13T00:53:51;3.23;;;1.30;;
74926;SDS011;63488;48.092;-1.640;2023-07-13T00:56:17;4.03;;;0.80;;
74926;SDS011;63488;48.092;-1.640;2023-07-13T00:58:43;5.50;;;1.38;;
74926;SDS011;63488;48.092;-1.640;2023-07-13T01:01:08;4.47;;;1.30;;
74926;SDS011;63488;48.092;-1.640;2023-07-13T01:03:34;4.75;;;1.25;;
74926;SDS011;63488;48.092;-1.640;2023-07-13T01:06:00;4.13;;;1.15;;
74926;SDS011;63488;48.092;-1.640;2023-07-13T01:08:25;3.80;;;0.95;;
74926;SDS011;63488;48.092;-1.640;2023-07-13T01:10:54;2.42;;;1.08;;
74926;SDS011;63488;48.092;-1.640;2023-07-13T01:13:20;6.55;;;1.38;;
74926;SDS011;63488;48.092;-1.640;2023-07-13T01:15:46;5.57;;;1.17;;
74926;SDS011;63488;48.092;-1.640;2023-07-13T01:18:13;5.15;;;1.25;;
74926;SDS011;63488;48.092;-1.640;2023-07-13T01:20:39;3.15;;;1.02;;
74926;SDS011;63488;48.092;-1.640;2023-07-13T01:23:06;3.78;;;0.85;;
74926;SDS011;63488;48.092;-1.640;2023-07-13T01:25:32;4.93;;;0.90;;
74926;SDS011;63488;48.092;-1.640;2023-07-13T01:27:57;3.72;;;1.00;;
74926;SDS011;63488;48.092;-1.640;2023-07-13T01:30:23;2.22;;;1.13;;
74926;SDS011;63488;48.092;-1.640;2023-07-13T01:32:48;3.22;;;1.00;;
74926;SDS011;63488;48.092;-1.640;2023-07-13T01:35:13;5.32;;;1.20;;
74926;SDS011;63488;48.092;-1.640;2023-07-13T01:37:39;4.95;;;0.98;;
74926;SDS011;63488;48.092;-1.640;2023-07-13T01:40:05;4.38;;;1.20;;
74926;SDS011;63488;48.092;-1.640;2023-07-13T01:42:30;5.97;;;1.38;;
74926;SDS011;63488;48.092;-1.640;2023-07-13T01:44:55;3.45;;;1.15;;
74926;SDS011;63488;48.092;-1.640;2023-07-13T01:47:22;3.97;;;1.30;;
74926;SDS011;63488;48.092;-1.640;2023-07-13T01:49:47;4.53;;;1.17;;
74926;SDS011;63488;48.092;-1.640;2023-07-13T01:52:13;4.80;;;1.08;;
74926;SDS011;63488;48.092;-1.640;2023-07-13T01:54:38;3.90;;;1.27;;
74926;SDS011;63488;48.092;-1.640;2023-07-13T01:57:03;7.03;;;1.00;;
74926;SDS011;63488;48.092;-1.640;2023-07-13T01:59:29;4.80;;;1.40;;
74926;SDS011;63488;48.092;-1.640;2023-07-13T02:01:54;5.85;;;1.17;;
74926;SDS011;63488;48.092;-1.640;2023-07-13T02:04:19;5.75;;;1.30;;
74926;SDS011;63488;48.092;-1.640;2023-07-13T02:06:45;5.13;;;1.30;;
74926;SDS011;63488;48.092;-1.640;2023-07-13T02:09:10;4.38;;;1.25;;
74926;SDS011;63488;48.092;-1.640;2023-07-13T02:11:35;6.32;;;1.25;;
74926;SDS011;63488;48.092;-1.640;2023-07-13T02:14:01;6.95;;;1.60;;
74926;SDS011;63488;48.092;-1.640;2023-07-13T02:16:27;6.50;;;1.20;;
74926;SDS011;63488;48.092;-1.640;2023-07-13T02:18:52;4.50;;;1.20;;
74926;SDS011;63488;48.092;-1.640;2023-07-13T02:21:18;3.65;;;1.40;;
74926;SDS011;63488;48.092;-1.640;2023-07-13T02:23:43;3.35;;;1.38;;
74926;SDS011;63488;48.092;-1.640;2023-07-13T02:26:09;5.72;;;1.58;;
74926;SDS011;63488;48.092;-1.640;2023-07-13T02:28:35;5.82;;;1.25;;
74926;SDS011;63488;48.092;-1.640;2023-07-13T02:31:13;4.13;;;1.08;;
74926;SDS011;63488;48.092;-1.640;2023-07-13T02:33:39;4.45;;;1.08;;
74926;SDS011;63488;48.092;-1.640;2023-07-13T02:36:04;3.13;;;1.20;;
74926;SDS011;63488;48.092;-1.640;2023-07-13T02:38:30;6.43;;;1.20;;
74926;SDS011;63488;48.092;-1.640;2023-07-13T02:40:58;4.55;;;1.65;;
74926;SDS011;63488;48.092;-1.640;2023-07-13T02:43:24;8.07;;;1.40;;
74926;SDS011;63488;48.092;-1.640;2023-07-13T02:45:49;6.72;;;1.42;;
74926;SDS011;63488;48.092;-1.640;2023-07-13T02:48:14;3.42;;;1.00;;
74926;SDS011;63488;48.092;-1.640;2023-07-13T02:50:40;3.45;;;1.27;;
74926;SDS011;63488;48.092;-1.640;2023-07-13T02:53:05;6.72;;;1.65;;
74926;SDS011;63488;48.092;-1.640;2023-07-13T02:55:31;8.30;;;1.25;;
74926;SDS011;63488;48.092;-1.640;2023-07-13T02:57:56;6.05;;;1.48;;
74926;SDS011;63488;48.092;-1.640;2023-07-13T03:00:22;4.65;;;1.23;;
74926;SDS011;63488;48.092;-1.640;2023-07-13T03:02:48;2.58;;;1.05;;
74926;SDS011;63488;48.092;-1.640;2023-07-13T03:05:13;5.40;;;1.55;;
74926;SDS011;63488;48.092;-1.640;2023-07-13T03:07:40;6.93;;;1.30;;
74926;SDS011;63488;48.092;-1.640;2023-07-13T03:10:05;3.75;;;1.40;;
74926;SDS011;63488;48.092;-1.640;2023-07-13T03:12:31;5.55;;;1.40;;
74926;SDS011;63488;48.092;-1.640;2023-07-13T03:14:57;5.10;;;1.65;;
74926;SDS011;63488;48.092;-1.640;2023-07-13T03:17:22;4.60;;;1.30;;
74926;SDS011;63488;48.092;-1.640;2023-07-13T03:19:48;4.47;;;1.25;;
74926;SDS011;63488;48.092;-1.640;2023-07-13T03:22:15;5.13;;;1.10;;
74926;SDS011;63488;48.092;-1.640;2023-07-13T03:24:41;8.27;;;1.90;;
74926;SDS011;63488;48.092;-1.640;2023-07-13T03:27:07;3.67;;;1.27;;
74926;SDS011;63488;48.092;-1.640;2023-07-13T03:29:33;4.32;;;1.23;;
74926;SDS011;63488;48.092;-1.640;2023-07-13T03:31:58;6.80;;;1.35;;
74926;SDS011;63488;48.092;-1.640;2023-07-13T03:34:23;4.85;;;1.27;;
74926;SDS011;63488;48.092;-1.640;2023-07-13T03:36:49;4.95;;;1.48;;
74926;SDS011;63488;48.092;-1.640;2023-07-13T03:39:14;3.03;;;1.25;;
74926;SDS011;63488;48.092;-1.640;2023-07-13T03:41:40;6.25;;;1.55;;
74926;SDS011;63488;48.092;-1.640;2023-07-13T03:44:05;5.78;;;1.50;;
74926;SDS011;63488;48.092;-1.640;2023-07-13T03:46:31;5.47;;;1.48;;
74926;SDS011;63488;48.092;-1.640;2023-07-13T03:48:56;6.15;;;1.52;;
74926;SDS011;63488;48.092;-1.640;2023-07-13T03:51:22;6.38;;;1.40;;
74926;SDS011;63488;48.092;-1.640;2023-07-13T03:53:48;6.13;;;1.42;;
74926;SDS011;63488;48.092;-1.640;2023-07-13T03:56:14;5.30;;;1.48;;
74926;SDS011;63488;48.092;-1.640;2023-07-13T03:58:40;6.55;;;1.60;;
74926;SDS011;63488;48.092;-1.640;2023-07-13T04:01:06;4.38;;;1.83;;
74926;SDS011;63488;48.092;-1.640;2023-07-13T04:03:32;5.28;;;1.70;;
74926;SDS011;63488;48.092;-1.640;2023-07-13T04:05:59;3.65;;;1.10;;
74926;SDS011;63488;48.092;-1.640;2023-07-13T04:08:36;5.43;;;1.45;;
74926;SDS011;63488;48.092;-1.640;2023-07-13T04:11:02;4.80;;;1.52;;
74926;SDS011;63488;48.092;-1.640;2023-07-13T04:13:28;5.57;;;1.70;;
74926;SDS011;63488;48.092;-1.640;2023-07-13T04:15:53;8.85;;;1.50;;
74926;SDS011;63488;48.092;-1.640;2023-07-13T04:18:19;5.63;;;1.27;;
74926;SDS011;63488;48.092;-1.640;2023-07-13T04:20:45;8.50;;;1.63;;
74926;SDS011;63488;48.092;-1.640;2023-07-13T04:23:10;6.18;;;2.05;;
74926;SDS011;63488;48.092;-1.640;2023-07-13T04:25:36;6.72;;;1.50;;
74926;SDS011;63488;48.092;-1.640;2023-07-13T04:28:02;6.05;;;1.40;;
74926;SDS011;63488;48.092;-1.640;2023-07-13T04:30:28;6.47;;;1.70;;
74926;SDS011;63488;48.092;-1.640;2023-07-13T04:32:53;7.40;;;1.90;;
74926;SDS011;63488;48.092;-1.640;2023-07-13T04:35:19;8.25;;;1.67;;
74926;SDS011;63488;48.092;-1.640;2023-07-13T04:37:46;8.10;;;1.83;;
74926;SDS011;63488;48.092;-1.640;2023-07-13T04:40:11;6.63;;;1.30;;
74926;SDS011;63488;48.092;-1.640;2023-07-13T04:42:37;4.13;;;1.40;;
74926;SDS011;63488;48.092;-1.640;2023-07-13T04:45:03;5.80;;;1.60;;
74926;SDS011;63488;48.092;-1.640;2023-07-13T04:47:30;6.55;;;1.40;;
74926;SDS011;63488;48.092;-1.640;2023-07-13T04:49:55;8.45;;;1.73;;
74926;SDS011;63488;48.092;-1.640;2023-07-13T04:52:21;6.60;;;1.60;;
74926;SDS011;63488;48.092;-1.640;2023-07-13T04:54:47;9.73;;;1.88;;
74926;SDS011;63488;48.092;-1.640;2023-07-13T04:57:12;3.45;;;1.60;;
74926;SDS011;63488;48.092;-1.640;2023-07-13T04:59:37;4.68;;;1.55;;
74926;SDS011;63488;48.092;-1.640;2023-07-13T05:02:03;6.75;;;1.45;;
74926;SDS011;63488;48.092;-1.640;2023-07-13T05:04:28;10.85;;;2.08;;
74926;SDS011;63488;48.092;-1.640;2023-07-13T05:06:53;5.47;;;1.70;;
74926;SDS011;63488;48.092;-1.640;2023-07-13T05:09:19;6.82;;;1.77;;
74926;SDS011;63488;48.092;-1.640;2023-07-13T05:11:44;7.80;;;1.73;;
74926;SDS011;63488;48.092;-1.640;2023-07-13T05:14:10;7.32;;;1.48;;
74926;SDS011;63488;48.092;-1.640;2023-07-13T05:16:35;5.93;;;1.48;;
74926;SDS011;63488;48.092;-1.640;2023-07-13T05:19:01;4.63;;;1.63;;
74926;SDS011;63488;48.092;-1.640;2023-07-13T05:21:26;8.27;;;1.60;;
74926;SDS011;63488;48.092;-1.640;2023-07-13T05:23:52;7.97;;;1.73;;
74926;SDS011;63488;48.092;-1.640;2023-07-13T05:26:17;5.93;;;1.60;;
74926;SDS011;63488;48.092;-1.640;2023-07-13T05:28:42;7.68;;;1.70;;
74926;SDS011;63488;48.092;-1.640;2023-07-13T05:31:08;4.70;;;1.90;;
74926;SDS011;63488;48.092;-1.640;2023-07-13T05:33:34;6.85;;;1.55;;
74926;SDS011;63488;48.092;-1.640;2023-07-13T05:35:59;6.18;;;1.80;;
74926;SDS011;63488;48.092;-1.640;2023-07-13T05:38:25;4.80;;;1.42;;
74926;SDS011;63488;48.092;-1.640;2023-07-13T05:40:52;5.80;;;1.48;;
74926;SDS011;63488;48.092;-1.640;2023-07-13T05:43:18;5.35;;;1.60;;
74926;SDS011;63488;48.092;-1.640;2023-07-13T05:45:43;6.15;;;1.58;;
74926;SDS011;63488;48.092;-1.640;2023-07-13T05:48:08;6.65;;;1.60;;
74926;SDS011;63488;48.092;-1.640;2023-07-13T05:50:34;6.75;;;1.98;;
74926;SDS011;63488;48.092;-1.640;2023-07-13T05:52:59;5.82;;;1.50;;
74926;SDS011;63488;48.092;-1.640;2023-07-13T05:55:24;4.45;;;1.33;;
74926;SDS011;63488;48.092;-1.640;2023-07-13T05:57:50;9.00;;;2.13;;
74926;SDS011;63488;48.092;-1.640;2023-07-13T06:00:16;6.78;;;1.70;;
74926;SDS011;63488;48.092;-1.640;2023-07-13T06:02:41;6.30;;;1.65;;
74926;SDS011;63488;48.092;-1.640;2023-07-13T06:05:07;7.60;;;1.63;;
74926;SDS011;63488;48.092;-1.640;2023-07-13T06:07:32;7.75;;;2.53;;
74926;SDS011;63488;48.092;-1.640;2023-07-13T06:09:57;8.80;;;1.88;;
74926;SDS011;63488;48.092;-1.640;2023-07-13T06:12:24;6.20;;;1.60;;
74926;SDS011;63488;48.092;-1.640;2023-07-13T06:14:49;7.03;;;1.90;;
74926;SDS011;63488;48.092;-1.640;2023-07-13T06:17:15;7.32;;;1.60;;
74926;SDS011;63488;48.092;-1.640;2023-07-13T06:19:40;9.80;;;1.95;;
74926;SDS011;63488;48.092;-1.640;2023-07-13T06:22:05;5.07;;;1.73;;
74926;SDS011;63488;48.092;-1.640;2023-07-13T06:24:31;4.38;;;1.50;;
74926;SDS011;63488;48.092;-1.640;2023-07-13T06:26:56;6.03;;;1.77;;
74926;SDS011;63488;48.092;-1.640;2023-07-13T06:29:22;5.47;;;1.60;;
74926;SDS011;63488;48.092;-1.640;2023-07-13T06:31:47;7.30;;;2.17;;
74926;SDS011;63488;48.092;-1.640;2023-07-13T06:34:12;6.72;;;1.75;;
74926;SDS011;63488;48.092;-1.640;2023-07-13T06:36:38;6.90;;;1.85;;
74926;SDS011;63488;48.092;-1.640;2023-07-13T06:39:03;4.22;;;1.75;;
74926;SDS011;63488;48.092;-1.640;2023-07-13T06:41:29;6.32;;;1.75;;
74926;SDS011;63488;48.092;-1.640;2023-07-13T06:43:55;6.03;;;2.00;;
74926;SDS011;63488;48.092;-1.640;2023-07-13T06:46:21;8.50;;;1.90;;
74926;SDS011;63488;48.092;-1.640;2023-07-13T06:48:47;5.28;;;1.73;;
74926;SDS011;63488;48.092;-1.640;2023-07-13T06:51:12;6.00;;;2.00;;
74926;SDS011;63488;48.092;-1.640;2023-07-13T06:53:38;8.85;;;1.90;;
74926;SDS011;63488;48.092;-1.640;2023-07-13T06:56:03;6.85;;;1.63;;
74926;SDS011;63488;48.092;-1.640;2023-07-13T06:58:29;8.00;;;1.90;;
74926;SDS011;63488;48.092;-1.640;2023-07-13T07:00:54;7.70;;;1.85;;
74926;SDS011;63488;48.092;-1.640;2023-07-13T07:03:19;5.53;;;1.63;;
74926;SDS011;63488;48.092;-1.640;2023-07-13T07:05:45;5.40;;;1.92;;
74926;SDS011;63488;48.092;-1.640;2023-07-13T07:08:11;5.10;;;1.85;;
74926;SDS011;63488;48.092;-1.640;2023-07-13T07:10:36;7.45;;;1.50;;
74926;SDS011;63488;48.092;-1.640;2023-07-13T07:13:01;5.88;;;1.52;;
74926;SDS011;63488;48.092;-1.640;2023-07-13T07:15:27;7.68;;;1.70;;
74926;SDS011;63488;48.092;-1.640;2023-07-13T07:17:52;6.10;;;1.80;;
74926;SDS011;63488;48.092;-1.640;2023-07-13T07:20:18;4.28;;;1.63;;
74926;SDS011;63488;48.092;-1.640;2023-07-13T07:22:43;6.00;;;1.35;;
74926;SDS011;63488;48.092;-1.640;2023-07-13T07:25:08;4.38;;;1.50;;
74926;SDS011;63488;48.092;-1.640;2023-07-13T07:27:34;4.50;;;1.30;;
74926;SDS011;63488;48.092;-1.640;2023-07-13T07:29:59;6.60;;;1.60;;
74926;SDS011;63488;48.092;-1.640;2023-07-13T07:32:25;6.70;;;1.80;;
74926;SDS011;63488;48.092;-1.640;2023-07-13T07:34:50;5.28;;;1.77;;
74926;SDS011;63488;48.092;-1.640;2023-07-13T07:37:15;6.25;;;1.52;;
74926;SDS011;63488;48.092;-1.640;2023-07-13T07:39:42;10.77;;;1.65;;
74926;SDS011;63488;48.092;-1.640;2023-07-13T07:42:07;7.07;;;1.90;;
74926;SDS011;63488;48.092;-1.640;2023-07-13T07:44:33;7.20;;;1.75;;
74926;SDS011;63488;48.092;-1.640;2023-07-13T07:46:59;8.38;;;2.10;;
74926;SDS011;63488;48.092;-1.640;2023-07-13T07:49:24;9.60;;;1.70;;
74926;SDS011;63488;48.092;-1.640;2023-07-13T07:51:50;9.00;;;1.70;;
74926;SDS011;63488;48.092;-1.640;2023-07-13T07:54:15;5.85;;;1.63;;
74926;SDS011;63488;48.092;-1.640;2023-07-13T07:56:41;8.98;;;1.90;;
74926;SDS011;63488;48.092;-1.640;2023-07-13T07:59:06;8.30;;;1.83;;
74926;SDS011;63488;48.092;-1.640;2023-07-13T08:01:32;4.68;;;1.80;;
74926;SDS011;63488;48.092;-1.640;2023-07-13T08:03:57;6.65;;;1.77;;
74926;SDS011;63488;48.092;-1.640;2023-07-13T08:06:23;7.82;;;1.60;;
74926;SDS011;63488;48.092;-1.640;2023-07-13T08:08:48;7.03;;;2.08;;
74926;SDS011;63488;48.092;-1.640;2023-07-13T08:11:13;4.20;;;1.52;;
74926;SDS011;63488;48.092;-1.640;2023-07-13T08:13:39;8.85;;;1.77;;
74926;SDS011;63488;48.092;-1.640;2023-07-13T08:16:05;7.03;;;1.92;;
74926;SDS011;63488;48.092;-1.640;2023-07-13T08:18:31;6.47;;;1.70;;
74926;SDS011;63488;48.092;-1.640;2023-07-13T08:20:56;5.43;;;1.80;;
74926;SDS011;63488;48.092;-1.640;2023-07-13T08:23:22;4.60;;;1.60;;
74926;SDS011;63488;48.092;-1.640;2023-07-13T08:25:54;6.20;;;1.77;;
74926;SDS011;63488;48.092;-1.640;2023-07-13T08:28:20;6.65;;;1.88;;
74926;SDS011;63488;48.092;-1.640;2023-07-13T08:30:45;4.97;;;1.45;;
74926;SDS011;63488;48.092;-1.640;2023-07-13T08:33:14;7.38;;;1.73;;
74926;SDS011;63488;48.092;-1.640;2023-07-13T08:35:40;3.80;;;1.48;;
74926;SDS011;63488;48.092;-1.640;2023-07-13T08:38:05;4.43;;;1.50;;
74926;SDS011;63488;48.092;-1.640;2023-07-13T08:40:30;3.75;;;1.40;;
74926;SDS011;63488;48.092;-1.640;2023-07-13T08:42:59;5.32;;;1.58;;
74926;SDS011;63488;48.092;-1.640;2023-07-13T08:45:33;7.72;;;1.60;;
74926;SDS011;63488;48.092;-1.640;2023-07-13T08:48:11;5.22;;;1.42;;
74926;SDS011;63488;48.092;-1.640;2023-07-13T08:53:16;7.25;;;1.60;;
74926;SDS011;63488;48.092;-1.640;2023-07-13T08:55:42;4.10;;;1.75;;
74926;SDS011;63488;48.092;-1.640;2023-07-13T08:58:11;5.93;;;1.58;;
74926;SDS011;63488;48.092;-1.640;2023-07-13T09:03:02;4.47;;;1.33;;
74926;SDS011;63488;48.092;-1.640;2023-07-13T09:05:40;3.63;;;1.13;;
74926;SDS011;63488;48.092;-1.640;2023-07-13T09:10:34;4.30;;;1.40;;
74926;SDS011;63488;48.092;-1.640;2023-07-13T09:13:10;2.20;;;0.95;;
74926;SDS011;63488;48.092;-1.640;2023-07-13T09:15:40;4.15;;;1.13;;
74926;SDS011;63488;48.092;-1.640;2023-07-13T09:18:09;2.60;;;1.10;;
74926;SDS011;63488;48.092;-1.640;2023-07-13T09:23:07;2.05;;;0.93;;
74926;SDS011;63488;48.092;-1.640;2023-07-13T09:25:36;3.33;;;1.02;;
74926;SDS011;63488;48.092;-1.640;2023-07-13T09:28:09;4.20;;;1.20;;
74926;SDS011;63488;48.092;-1.640;2023-07-13T09:30:41;2.22;;;1.00;;
74926;SDS011;63488;48.092;-1.640;2023-07-13T09:33:09;3.85;;;0.85;;
74926;SDS011;63488;48.092;-1.640;2023-07-13T09:35:35;4.10;;;1.00;;
74926;SDS011;63488;48.092;-1.640;2023-07-13T09:38:19;2.05;;;1.00;;
74926;SDS011;63488;48.092;-1.640;2023-07-13T09:41:04;4.97;;;1.27;;
74926;SDS011;63488;48.092;-1.640;2023-07-13T09:43:36;3.75;;;1.15;;
74926;SDS011;63488;48.092;-1.640;2023-07-13T09:46:02;4.57;;;1.10;;
74926;SDS011;63488;48.092;-1.640;2023-07-13T09:48:33;2.70;;;0.93;;
74926;SDS011;63488;48.092;-1.640;2023-07-13T09:50:59;5.78;;;1.20;;
74926;SDS011;63488;48.092;-1.640;2023-07-13T09:53:31;4.50;;;1.35;;
74926;SDS011;63488;48.092;-1.640;2023-07-13T09:55:57;3.38;;;1.20;;
74926;SDS011;63488;48.092;-1.640;2023-07-13T09:58:24;2.72;;;0.98;;
74926;SDS011;63488;48.092;-1.640;2023-07-13T10:00:57;4.53;;;1.35;;
74926;SDS011;63488;48.092;-1.640;2023-07-13T10:03:24;2.53;;;1.05;;
74926;SDS011;63488;48.092;-1.640;2023-07-13T10:05:51;3.80;;;1.00;;
74926;SDS011;63488;48.092;-1.640;2023-07-13T10:08:18;3.25;;;1.20;;
74926;SDS011;63488;48.092;-1.640;2023-07-13T10:10:44;2.70;;;1.20;;
74926;SDS011;63488;48.092;-1.640;2023-07-13T10:13:29;2.75;;;0.90;;
74926;SDS011;63488;48.092;-1.640;2023-07-13T10:15:56;4.25;;;1.20;;
74926;SDS011;63488;48.092;-1.640;2023-07-13T10:18:23;3.03;;;1.10;;
74926;SDS011;63488;48.092;-1.640;2023-07-13T10:20:50;2.58;;;1.05;;
74926;SDS011;63488;48.092;-1.640;2023-07-13T10:23:21;5.07;;;1.70;;
74926;SDS011;63488;48.092;-1.640;2023-07-13T10:25:48;2.35;;;0.98;;
74926;SDS011;63488;48.092;-1.640;2023-07-13T10:28:24;1.98;;;1.20;;
74926;SDS011;63488;48.092;-1.640;2023-07-13T10:31:05;2.53;;;1.08;;
74926;SDS011;63488;48.092;-1.640;2023-07-13T10:33:36;2.38;;;1.10;;
74926;SDS011;63488;48.092;-1.640;2023-07-13T10:36:20;2.75;;;1.10;;
74926;SDS011;63488;48.092;-1.640;2023-07-13T10:38:50;2.80;;;1.10;;
74926;SDS011;63488;48.092;-1.640;2023-07-13T10:41:19;3.53;;;1.30;;
74926;SDS011;63488;48.092;-1.640;2023-07-13T10:46:19;2.33;;;1.40;;
74926;SDS011;63488;48.092;-1.640;2023-07-13T10:48:48;3.85;;;1.73;;
74926;SDS011;63488;48.092;-1.640;2023-07-13T10:51:17;2.28;;;1.35;;
74926;SDS011;63488;48.092;-1.640;2023-07-13T10:54:10;3.55;;;1.60;;
74926;SDS011;63488;48.092;-1.640;2023-07-13T10:56:34;2.65;;;0.90;;
74926;SDS011;63488;48.092;-1.640;2023-07-13T10:59:11;2.15;;;0.80;;
74926;SDS011;63488;48.092;-1.640;2023-07-13T11:01:57;4.03;;;1.73;;
74926;SDS011;63488;48.092;-1.640;2023-07-13T11:04:25;2.75;;;1.05;;
74926;SDS011;63488;48.092;-1.640;2023-07-13T11:06:59;9.13;;;1.60;;
74926;SDS011;63488;48.092;-1.640;2023-07-13T11:09:40;2.00;;;1.10;;
74926;SDS011;63488;48.092;-1.640;2023-07-13T11:12:27;4.00;;;1.45;;
74926;SDS011;63488;48.092;-1.640;2023-07-13T11:17:33;2.78;;;1.33;;
74926;SDS011;63488;48.092;-1.640;2023-07-13T11:25:30;3.80;;;1.65;;
74926;SDS011;63488;48.092;-1.640;2023-07-13T11:28:11;4.35;;;1.60;;
74926;SDS011;63488;48.092;-1.640;2023-07-13T11:30:45;3.55;;;1.10;;
74926;SDS011;63488;48.092;-1.640;2023-07-13T11:33:17;2.00;;;1.00;;
74926;SDS011;63488;48.092;-1.640;2023-07-13T11:35:49;2.58;;;1.10;;
74926;SDS011;63488;48.092;-1.640;2023-07-13T11:38:21;2.30;;;1.20;;
74926;SDS011;63488;48.092;-1.640;2023-07-13T11:40:48;3.80;;;1.08;;
74926;SDS011;63488;48.092;-1.640;2023-07-13T11:43:15;1.38;;;0.80;;
74926;SDS011;63488;48.092;-1.640;2023-07-13T11:45:42;2.22;;;1.05;;
74926;SDS011;63488;48.092;-1.640;2023-07-13T11:50:52;2.88;;;1.00;;
74926;SDS011;63488;48.092;-1.640;2023-07-13T11:53:19;3.28;;;1.35;;
74926;SDS011;63488;48.092;-1.640;2023-07-13T11:55:45;3.65;;;0.85;;
74926;SDS011;63488;48.092;-1.640;2023-07-13T11:58:18;1.88;;;1.00;;
74926;SDS011;63488;48.092;-1.640;2023-07-13T12:00:46;2.58;;;0.85;;
74926;SDS011;63488;48.092;-1.640;2023-07-13T12:03:12;3.72;;;0.85;;
74926;SDS011;63488;48.092;-1.640;2023-07-13T12:05:38;2.03;;;0.98;;
74926;SDS011;63488;48.092;-1.640;2023-07-13T12:08:19;2.08;;;1.00;;
74926;SDS011;63488;48.092;-1.640;2023-07-13T12:10:45;3.20;;;1.10;;
74926;SDS011;63488;48.092;-1.640;2023-07-13T12:13:12;3.45;;;1.42;;
74926;SDS011;63488;48.092;-1.640;2023-07-13T12:15:43;3.40;;;1.10;;
74926;SDS011;63488;48.092;-1.640;2023-07-13T12:18:21;5.32;;;1.10;;
74926;SDS011;63488;48.092;-1.640;2023-07-13T12:20:48;3.00;;;0.95;;
74926;SDS011;63488;48.092;-1.640;2023-07-13T12:23:24;2.85;;;1.10;;
74926;SDS011;63488;48.092;-1.640;2023-07-13T12:25:50;2.53;;;1.08;;
74926;SDS011;63488;48.092;-1.640;2023-07-13T12:28:20;1.88;;;1.00;;
74926;SDS011;63488;48.092;-1.640;2023-07-13T12:30:47;3.63;;;1.20;;
74926;SDS011;63488;48.092;-1.640;2023-07-13T12:33:13;2.53;;;1.27;;
74926;SDS011;63488;48.092;-1.640;2023-07-13T12:35:49;4.88;;;1.10;;
74926;SDS011;63488;48.092;-1.640;2023-07-13T12:38:15;3.70;;;1.08;;
74926;SDS011;63488;48.092;-1.640;2023-07-13T12:40:40;4.47;;;1.00;;
74926;SDS011;63488;48.092;-1.640;2023-07-13T12:43:15;1.80;;;1.05;;
74926;SDS011;63488;48.092;-1.640;2023-07-13T12:45:58;2.90;;;1.00;;
74926;SDS011;63488;48.092;-1.640;2023-07-13T12:48:23;3.03;;;1.45;;
74926;SDS011;63488;48.092;-1.640;2023-07-13T12:50:49;3.83;;;1.17;;
74926;SDS011;63488;48.092;-1.640;2023-07-13T12:53:20;5.70;;;1.42;;
74926;SDS011;63488;48.092;-1.640;2023-07-13T12:55:47;6.07;;;1.00;;
74926;SDS011;63488;48.092;-1.640;2023-07-13T12:58:46;2.33;;;1.13;;
74926;SDS011;63488;48.092;-1.640;2023-07-13T13:01:05;4.72;;;1.30;;
74926;SDS011;63488;48.092;-1.640;2023-07-13T13:03:35;3.35;;;1.15;;
74926;SDS011;63488;48.092;-1.640;2023-07-13T13:06:03;1.80;;;0.98;;
74926;SDS011;63488;48.092;-1.640;2023-07-13T13:08:31;5.93;;;1.25;;
74926;SDS011;63488;48.092;-1.640;2023-07-13T13:10:59;3.77;;;1.20;;
74926;SDS011;63488;48.092;-1.640;2023-07-13T13:13:26;4.22;;;1.35;;
74926;SDS011;63488;48.092;-1.640;2023-07-13T13:15:52;4.55;;;1.83;;
74926;SDS011;63488;48.092;-1.640;2023-07-13T13:18:21;2.60;;;1.20;;
74926;SDS011;63488;48.092;-1.640;2023-07-13T13:20:49;3.17;;;1.17;;
74926;SDS011;63488;48.092;-1.640;2023-07-13T13:23:17;3.97;;;1.25;;
74926;SDS011;63488;48.092;-1.640;2023-07-13T13:25:46;3.13;;;1.27;;
74926;SDS011;63488;48.092;-1.640;2023-07-13T13:28:25;3.72;;;1.20;;
74926;SDS011;63488;48.092;-1.640;2023-07-13T13:30:52;2.60;;;1.40;;
74926;SDS011;63488;48.092;-1.640;2023-07-13T13:33:20;3.35;;;1.20;;
74926;SDS011;63488;48.092;-1.640;2023-07-13T13:35:47;1.80;;;1.08;;
74926;SDS011;63488;48.092;-1.640;2023-07-13T13:38:15;4.97;;;1.33;;
74926;SDS011;63488;48.092;-1.640;2023-07-13T13:40:43;3.20;;;1.25;;
74926;SDS011;63488;48.092;-1.640;2023-07-13T13:43:14;1.77;;;1.00;;
74926;SDS011;63488;48.092;-1.640;2023-07-13T13:45:42;2.28;;;1.08;;
74926;SDS011;63488;48.092;-1.640;2023-07-13T13:48:13;7.18;;;1.48;;
74926;SDS011;63488;48.092;-1.640;2023-07-13T13:50:40;2.85;;;1.10;;
74926;SDS011;63488;48.092;-1.640;2023-07-13T13:53:09;2.78;;;1.25;;
74926;SDS011;63488;48.092;-1.640;2023-07-13T13:55:37;3.15;;;1.38;;
74926;SDS011;63488;48.092;-1.640;2023-07-13T13:58:04;3.22;;;1.55;;
74926;SDS011;63488;48.092;-1.640;2023-07-13T14:00:31;3.30;;;1.30;;
74926;SDS011;63488;48.092;-1.640;2023-07-13T14:02:58;1.52;;;1.02;;
74926;SDS011;63488;48.092;-1.640;2023-07-13T14:05:25;2.40;;;1.20;;
74926;SDS011;63488;48.092;-1.640;2023-07-13T14:07:53;1.85;;;1.15;;
74926;SDS011;63488;48.092;-1.640;2023-07-13T14:10:20;1.70;;;0.90;;
74926;SDS011;63488;48.092;-1.640;2023-07-13T14:12:50;7.40;;;1.67;;
74926;SDS011;63488;48.092;-1.640;2023-07-13T14:15:21;3.53;;;1.13;;
74926;SDS011;63488;48.092;-1.640;2023-07-13T14:17:48;5.07;;;1.30;;
74926;SDS011;63488;48.092;-1.640;2023-07-13T14:20:16;2.35;;;1.25;;
74926;SDS011;63488;48.092;-1.640;2023-07-13T14:22:43;5.05;;;1.33;;
74926;SDS011;63488;48.092;-1.640;2023-07-13T14:25:14;2.38;;;1.30;;
74926;SDS011;63488;48.092;-1.640;2023-07-13T14:27:41;3.33;;;1.40;;
74926;SDS011;63488;48.092;-1.640;2023-07-13T14:30:15;4.50;;;1.60;;
74926;SDS011;63488;48.092;-1.640;2023-07-13T14:32:42;5.35;;;1.20;;
74926;SDS011;63488;48.092;-1.640;2023-07-13T14:35:15;3.30;;;1.25;;
74926;SDS011;63488;48.092;-1.640;2023-07-13T14:37:42;5.35;;;1.25;;
74926;SDS011;63488;48.092;-1.640;2023-07-13T14:40:31;1.88;;;1.23;;
74926;SDS011;63488;48.092;-1.640;2023-07-13T14:42:56;2.25;;;1.23;;
74926;SDS011;63488;48.092;-1.640;2023-07-13T14:45:24;5.75;;;1.58;;
74926;SDS011;63488;48.092;-1.640;2023-07-13T14:47:51;2.03;;;1.40;;
74926;SDS011;63488;48.092;-1.640;2023-07-13T14:50:20;4.88;;;1.50;;
74926;SDS011;63488;48.092;-1.640;2023-07-13T14:55:13;2.60;;;1.10;;
74926;SDS011;63488;48.092;-1.640;2023-07-13T14:57:38;3.45;;;1.40;;
74926;SDS011;63488;48.092;-1.640;2023-07-13T15:00:05;3.70;;;1.33;;
74926;SDS011;63488;48.092;-1.640;2023-07-13T15:02:33;3.90;;;1.42;;